Time;durP1;ratioP1;P1;durP2;ratioP2;P2;SDS_P1;SDS_P2;PMS_P1;PMS_P2;Temp;Humidity;BMP_temperature;BMP_pressure;BME280_temperature;BME280_humidity;BME280_pressure;Samples;Min_cycle;Max_cycle;Signal;HPM_P1;HPM_P2
2023/06/01 18:57:56;;;;;;;3.53;2.80;;;24.60;50.80;;;;;;6215295;23;20438;-70
2023/06/01 19:00:21;;;;;;;2.90;2.50;;;24.60;50.80;;;;;;6215165;23;20381;-70
2023/06/01 19:02:47;;;;;;;3.80;2.70;;;24.60;50.80;;;;;;6215012;23;20175;-70
2023/06/01 19:05:22;;;;;;;2.93;2.40;;;24.60;50.80;;;;;;6163759;23;20225;-69
2023/06/01 19:07:47;;;;;;;2.53;2.33;;;24.60;50.80;;;;;;6185095;23;20160;-69
2023/06/01 19:10:14;;;;;;;3.33;3.00;;;24.60;50.80;;;;;;6184961;23;20367;-70
2023/06/01 19:12:41;;;;;;;2.90;2.53;;;24.60;50.70;;;;;;6184764;23;20274;-70
2023/06/01 19:15:09;;;;;;;2.70;2.30;;;24.60;50.80;;;;;;6184895;23;20925;-69
2023/06/01 19:17:36;;;;;;;3.10;2.37;;;24.60;50.70;;;;;;6185009;23;20442;-70
2023/06/01 19:20:04;;;;;;;3.23;2.60;;;24.60;50.70;;;;;;6185337;23;20702;-69
2023/06/01 19:22:31;;;;;;;2.97;2.63;;;24.60;50.70;;;;;;6184765;23;20422;-69
2023/06/01 19:25:00;;;;;;;3.53;2.10;;;24.60;50.70;;;;;;6184742;23;20399;-69
2023/06/01 19:27:27;;;;;;;3.00;2.53;;;24.60;50.70;;;;;;6184716;23;20375;-69
2023/06/01 19:29:53;;;;;;;2.70;2.43;;;24.60;50.70;;;;;;6184724;23;20407;-68
2023/06/01 19:32:19;;;;;;;3.20;2.67;;;24.60;50.70;;;;;;6184740;23;20378;-69
2023/06/01 19:34:44;;;;;;;2.93;2.60;;;24.60;50.70;;;;;;6184863;23;20403;-69
2023/06/01 19:37:13;;;;;;;2.80;2.47;;;24.60;50.70;;;;;;6184671;23;20183;-69
2023/06/01 19:39:44;;;;;;;3.23;2.93;;;24.60;50.70;;;;;;6184647;23;20202;-69
2023/06/01 19:42:16;;;;;;;3.50;3.20;;;24.60;50.60;;;;;;6158103;23;20449;-69
2023/06/01 19:44:45;;;;;;;2.93;2.63;;;24.60;50.60;;;;;;6184524;23;20737;-69
2023/06/01 19:47:44;;;;;;;3.50;2.70;;;24.60;50.60;;;;;;6184504;23;20375;-69
2023/06/01 19:50:31;;;;;;;3.00;2.70;;;24.60;50.60;;;;;;6184416;23;20379;-70
2023/06/01 19:53:01;;;;;;;3.73;2.67;;;24.60;50.60;;;;;;6184886;23;20387;-70
2023/06/01 19:55:31;;;;;;;3.37;2.73;;;24.60;50.60;;;;;;6184429;23;20391;-69
2023/06/01 19:57:57;;;;;;;4.00;3.10;;;24.60;50.60;;;;;;6184822;23;20398;-70
2023/06/01 20:00:27;;;;;;;4.00;3.27;;;24.60;50.60;;;;;;6158048;23;20379;-70
2023/06/01 20:02:58;;;;;;;2.97;2.67;;;24.60;50.60;;;;;;6184443;23;20410;-70
2023/06/01 20:05:25;;;;;;;4.90;3.10;;;24.60;50.50;;;;;;6184472;23;20474;-70
2023/06/01 20:07:57;;;;;;;3.30;3.00;;;24.60;50.50;;;;;;6184449;23;20457;-68
2023/06/01 20:10:26;;;;;;;3.20;2.90;;;24.60;50.50;;;;;;6184808;23;20363;-69
2023/06/01 20:12:56;;;;;;;4.00;3.30;;;24.60;50.50;;;;;;6184332;23;20413;-70
2023/06/01 20:15:33;;;;;;;4.67;3.27;;;24.60;50.40;;;;;;6184376;23;20390;-69
2023/06/01 20:18:01;;;;;;;3.23;2.93;;;24.60;50.40;;;;;;6184772;23;20359;-70
2023/06/01 20:20:45;;;;;;;3.43;3.13;;;24.60;51.00;;;;;;6184344;23;20382;-70
2023/06/01 20:23:14;;;;;;;3.30;3.00;;;24.60;50.30;;;;;;6183990;23;20363;-69
2023/06/01 20:25:41;;;;;;;3.70;3.27;;;24.60;50.40;;;;;;6184091;23;20359;-70
2023/06/01 20:28:12;;;;;;;4.50;3.50;;;24.60;50.40;;;;;;6184232;23;20367;-69
2023/06/01 20:30:46;;;;;;;3.50;3.20;;;24.60;50.20;;;;;;6184665;23;20348;-70
2023/06/01 20:33:19;;;;;;;3.40;3.10;;;24.60;50.30;;;;;;6184319;23;20403;-71
2023/06/01 20:35:44;;;;;;;3.73;3.30;;;24.60;50.30;;;;;;6184310;23;20358;-71
2023/06/01 20:38:13;;;;;;;4.23;3.83;;;24.60;50.30;;;;;;6184179;23;20359;-70
2023/06/01 20:40:45;;;;;;;4.27;2.90;;;24.60;50.20;;;;;;6184223;23;20151;-70
2023/06/01 20:43:22;;;;;;;3.20;2.80;;;24.60;50.20;;;;;;6184120;23;20382;-70
2023/06/01 20:46:00;;;;;;;3.30;3.00;;;24.60;50.20;;;;;;6184188;23;20442;-69
2023/06/01 20:48:52;;;;;;;4.10;3.10;;;24.60;50.20;;;;;;6184149;23;20356;-70
2023/06/01 20:51:26;;;;;;;4.90;3.57;;;24.60;50.20;;;;;;6184192;23;20362;-70
2023/06/01 20:53:57;;;;;;;5.33;3.80;;;24.60;50.20;;;;;;6183989;23;20390;-68
2023/06/01 20:56:30;;;;;;;4.57;4.03;;;24.60;50.20;;;;;;6183969;23;20487;-70
2023/06/01 20:59:21;;;;;;;4.10;3.37;;;24.60;50.20;;;;;;6182744;23;20371;-70
2023/06/01 21:01:51;;;;;;;4.50;3.67;;;24.60;50.20;;;;;;6183163;23;20477;-70
2023/06/01 21:04:25;;;;;;;5.10;3.80;;;24.60;50.20;;;;;;6184254;23;20750;-70
2023/06/01 21:06:51;;;;;;;3.30;3.00;;;24.60;50.20;;;;;;6157748;23;20383;-70
2023/06/01 21:09:18;;;;;;;4.33;3.93;;;24.50;50.10;;;;;;6184011;23;20375;-70
2023/06/01 21:11:47;;;;;;;6.70;4.00;;;24.60;50.20;;;;;;6184032;23;20375;-70
2023/06/01 21:14:13;;;;;;;4.03;3.63;;;24.60;50.20;;;;;;6183856;23;20445;-70
2023/06/01 21:16:39;;;;;;;4.47;4.07;;;24.60;50.20;;;;;;6183943;23;20382;-69
2023/06/01 21:19:05;;;;;;;6.27;4.90;;;24.60;50.20;;;;;;6183912;23;20375;-70
2023/06/01 21:21:30;;;;;;;5.00;3.73;;;24.60;50.20;;;;;;6183938;23;20179;-70
2023/06/01 21:23:56;;;;;;;3.83;3.17;;;24.60;50.20;;;;;;6183914;23;20164;-69
2023/06/01 21:26:23;;;;;;;6.77;3.90;;;24.60;50.20;;;;;;6183782;23;20932;-69
2023/06/01 21:28:49;;;;;;;4.53;3.17;;;24.60;50.10;;;;;;6183997;23;20614;-70
2023/06/01 21:31:15;;;;;;;4.97;4.40;;;24.50;50.00;;;;;;6183952;23;20375;-70
2023/06/01 21:33:41;;;;;;;5.13;4.23;;;24.60;50.00;;;;;;6183798;23;20402;-70
2023/06/01 21:36:07;;;;;;;4.53;3.87;;;24.50;50.00;;;;;;6185874;23;20143;-71
2023/06/01 21:38:33;;;;;;;4.23;3.80;;;24.50;49.90;;;;;;6186233;23;20497;-70
2023/06/01 21:40:59;;;;;;;5.50;3.80;;;24.50;49.90;;;;;;6159288;23;20466;-69
2023/06/01 21:43:25;;;;;;;4.70;4.27;;;24.50;49.90;;;;;;6185892;23;20148;-70
2023/06/01 21:45:51;;;;;;;5.70;4.20;;;24.50;49.90;;;;;;6185778;23;20155;-70
2023/06/01 21:48:17;;;;;;;4.53;4.10;;;24.50;49.90;;;;;;6159366;23;20465;-70
2023/06/01 21:50:46;;;;;;;4.80;4.20;;;24.60;50.00;;;;;;6186096;23;20148;-71
2023/06/01 21:53:12;;;;;;;7.30;4.17;;;24.50;49.90;;;;;;6185867;23;20379;-69
2023/06/01 21:55:40;;;;;;;4.93;3.77;;;24.50;50.00;;;;;;6185427;23;20387;-69
2023/06/01 21:58:06;;;;;;;4.50;4.10;;;24.50;50.00;;;;;;6185807;23;20390;-68
2023/06/01 22:00:32;;;;;;;4.43;4.03;;;24.50;49.90;;;;;;6185738;23;20374;-68
2023/06/01 22:02:59;;;;;;;5.20;4.67;;;24.50;50.00;;;;;;6185499;23;20445;-68
2023/06/01 22:05:24;;;;;;;4.80;4.40;;;24.50;49.90;;;;;;6185472;23;20390;-68
2023/06/01 22:07:50;;;;;;;4.57;4.07;;;24.50;50.00;;;;;;6185923;23;20449;-69
2023/06/01 22:10:16;;;;;;;4.93;4.43;;;24.50;50.00;;;;;;6185478;23;20158;-69
2023/06/01 22:12:41;;;;;;;4.83;4.43;;;24.50;49.90;;;;;;6185639;23;20152;-69
2023/06/01 22:15:08;;;;;;;5.27;4.77;;;24.50;49.90;;;;;;6185503;23;20171;-70
2023/06/01 22:17:35;;;;;;;5.10;4.43;;;24.50;49.90;;;;;;6185564;23;20231;-68
2023/06/01 22:20:02;;;;;;;6.20;4.17;;;24.50;49.90;;;;;;6185481;23;20399;-69
2023/06/01 22:22:28;;;;;;;4.90;4.40;;;24.50;49.90;;;;;;6185680;23;20427;-68
2023/06/01 22:24:57;;;;;;;4.87;4.10;;;24.50;50.00;;;;;;6185705;23;20817;-70
2023/06/01 22:27:23;;;;;;;4.10;3.70;;;24.50;50.00;;;;;;6185525;23;20144;-70
2023/06/01 22:29:48;;;;;;;4.20;3.60;;;24.50;50.00;;;;;;6185492;23;20367;-69
2023/06/01 22:32:14;;;;;;;5.67;5.03;;;24.50;50.00;;;;;;6185739;23;20222;-69
2023/06/01 22:34:41;;;;;;;4.57;4.07;;;24.50;50.00;;;;;;6185161;23;20630;-70
2023/06/01 22:37:07;;;;;;;6.27;4.57;;;24.50;50.00;;;;;;6185412;23;20595;-68
2023/06/01 22:39:33;;;;;;;5.30;4.23;;;24.50;50.00;;;;;;6185420;23;20733;-69
2023/06/01 22:41:59;;;;;;;5.73;4.20;;;24.50;50.00;;;;;;6185594;23;20175;-70
2023/06/01 22:44:24;;;;;;;4.90;4.33;;;24.50;49.80;;;;;;6185252;23;20443;-70
2023/06/01 22:46:50;;;;;;;3.83;3.50;;;24.50;49.80;;;;;;6184775;23;20144;-69
2023/06/01 22:49:16;;;;;;;4.40;4.00;;;24.50;49.70;;;;;;6159084;23;20490;-69
2023/06/01 22:51:41;;;;;;;4.97;4.00;;;24.50;49.60;;;;;;6185260;23;20500;-68
2023/06/01 22:54:07;;;;;;;5.60;4.27;;;24.50;49.60;;;;;;6185118;23;20634;-69
2023/06/01 22:56:34;;;;;;;3.70;3.40;;;24.50;49.60;;;;;;6185070;23;20164;-70
2023/06/01 22:58:59;;;;;;;7.43;3.80;;;24.50;49.70;;;;;;6185324;23;20708;-69
2023/06/01 23:01:25;;;;;;;4.60;4.10;;;24.50;49.70;;;;;;6158787;23;20427;-70
2023/06/01 23:03:52;;;;;;;3.80;3.40;;;24.50;49.70;;;;;;6185117;23;20538;-69
2023/06/01 23:06:20;;;;;;;6.30;3.90;;;24.50;49.70;;;;;;6185028;23;20379;-70
2023/06/01 23:08:48;;;;;;;4.50;4.10;;;24.50;49.70;;;;;;6184997;23;20410;-69
2023/06/01 23:11:18;;;;;;;3.83;3.53;;;24.50;49.70;;;;;;6185050;23;20449;-70
2023/06/01 23:13:47;;;;;;;4.10;3.70;;;24.50;49.60;;;;;;6185049;23;20395;-70
2023/06/01 23:16:15;;;;;;;4.60;3.50;;;24.50;49.60;;;;;;6185096;23;20722;-71
2023/06/01 23:18:43;;;;;;;4.00;3.70;;;24.50;49.70;;;;;;6158725;23;20387;-70
2023/06/01 23:21:12;;;;;;;4.90;4.20;;;24.50;49.70;;;;;;6184895;23;20501;-70
2023/06/01 23:23:44;;;;;;;4.23;3.83;;;24.50;49.70;;;;;;6184746;23;20904;-70
2023/06/01 23:26:13;;;;;;;4.63;3.83;;;24.50;49.70;;;;;;6184890;23;20719;-69
2023/06/01 23:29:08;;;;;;;4.33;3.67;;;24.50;49.70;;;;;;6184854;23;20383;-70
2023/06/01 23:31:34;;;;;;;3.87;3.50;;;24.50;49.70;;;;;;6165757;23;20390;-70
2023/06/01 23:34:01;;;;;;;4.23;3.40;;;24.50;49.80;;;;;;6184735;23;20529;-70
2023/06/01 23:36:33;;;;;;;3.57;3.27;;;24.50;49.80;;;;;;6184809;23;20375;-70
2023/06/01 23:39:01;;;;;;;4.77;3.90;;;24.50;49.80;;;;;;6185074;23;20367;-70
2023/06/01 23:41:27;;;;;;;4.63;4.23;;;24.50;49.80;;;;;;6184713;23;20469;-70
2023/06/01 23:43:53;;;;;;;4.20;3.77;;;24.50;49.80;;;;;;6184904;23;20731;-69
2023/06/01 23:46:19;;;;;;;4.10;3.70;;;24.50;49.80;;;;;;6184682;23;20367;-70
2023/06/01 23:48:45;;;;;;;4.20;3.80;;;24.50;49.80;;;;;;6184637;23;20390;-69
2023/06/01 23:51:11;;;;;;;3.50;3.20;;;24.50;49.80;;;;;;6158135;23;20302;-69
2023/06/01 23:53:37;;;;;;;4.43;3.43;;;24.50;49.80;;;;;;6184556;23;20893;-69
2023/06/01 23:56:04;;;;;;;4.70;3.53;;;24.50;49.80;;;;;;6158124;23;20399;-70
2023/06/01 23:58:30;;;;;;;3.93;3.40;;;24.50;49.70;;;;;;6184488;23;20399;-69
